Snoqualmie River: Carnation station

back to: Snoqualmie river
Carnation station Summary - (NOAA Hydrograph: CRNW1)
flood stage: 54.0 ft
Latest reading:
Wed05/23 03:15 pm 47.73 ft 4480 cfs (-120/hr)
Past 24hr max:
Wed05/23 10:45 am 47.76 ft 4550 cfs
Forecasted crests: (published Wed 05/23/18 08:58 am)
Thu05/24 05:00 am 47.91 ft 4904 cfs
Mon05/28 11:00 am 47.11 ft 3144 cfs
Tue05/29 11:00 am 47.14 ft 3198 cfs
Wed05/30 11:00 am 47.16 ft 3252 cfs

Carnation station Details

Latest Readings

Last 100 Readings:
Wed05/23 03:15 pm 47.73 ft 4480 cfs
Wed05/23 03:00 pm 47.74 ft 4510 cfs
Wed05/23 02:45 pm 47.74 ft 4510 cfs
Wed05/23 02:30 pm 47.75 ft 4530 cfs
Wed05/23 02:15 pm 47.75 ft 4530 cfs
Wed05/23 02:00 pm 47.75 ft 4530 cfs
Wed05/23 01:45 pm 47.75 ft 4530 cfs
Wed05/23 01:30 pm 47.76 ft 4550 cfs
Wed05/23 01:15 pm 47.76 ft 4550 cfs
Wed05/23 01:00 pm 47.76 ft 4550 cfs
Wed05/23 12:45 pm 47.76 ft 4550 cfs
Wed05/23 12:30 pm 47.76 ft 4550 cfs
Wed05/23 12:15 pm 47.76 ft 4550 cfs
Wed05/23 12:00 pm 47.76 ft 4550 cfs
Wed05/23 11:45 am 47.76 ft 4550 cfs
Wed05/23 11:30 am 47.76 ft 4550 cfs
Wed05/23 11:15 am 47.76 ft 4550 cfs
Wed05/23 11:00 am 47.76 ft 4550 cfs
Wed05/23 10:45 am 47.76 ft 4550 cfs
Wed05/23 10:30 am 47.75 ft 4530 cfs
Wed05/23 10:15 am 47.75 ft 4530 cfs
Wed05/23 10:00 am 47.75 ft 4530 cfs
Wed05/23 09:45 am 47.74 ft 4510 cfs
Wed05/23 09:30 am 47.74 ft 4510 cfs
Wed05/23 09:15 am 47.73 ft 4480 cfs
Wed05/23 09:00 am 47.72 ft 4460 cfs
Wed05/23 08:45 am 47.71 ft 4440 cfs
Wed05/23 08:30 am 47.71 ft 4440 cfs
Wed05/23 08:15 am 47.7 ft 4410 cfs
Wed05/23 08:00 am 47.68 ft 4370 cfs
Wed05/23 07:45 am 47.68 ft 4370 cfs
Wed05/23 07:30 am 47.67 ft 4350 cfs
Wed05/23 07:15 am 47.66 ft 4320 cfs
Wed05/23 07:00 am 47.64 ft 4280 cfs
Wed05/23 06:45 am 47.63 ft 4250 cfs
Wed05/23 06:30 am 47.62 ft 4230 cfs
Wed05/23 06:15 am 47.61 ft 4210 cfs
Wed05/23 06:00 am 47.59 ft 4160 cfs
Wed05/23 05:45 am 47.58 ft 4140 cfs
Wed05/23 05:30 am 47.57 ft 4120 cfs
Wed05/23 05:15 am 47.55 ft 4070 cfs
Wed05/23 05:00 am 47.54 ft 4050 cfs
Wed05/23 04:45 am 47.52 ft 4010 cfs
Wed05/23 04:30 am 47.51 ft 3980 cfs
Wed05/23 04:15 am 47.49 ft 3940 cfs
Wed05/23 04:00 am 47.48 ft 3920 cfs
Wed05/23 03:45 am 47.46 ft 3870 cfs
Wed05/23 03:30 am 47.44 ft 3830 cfs
Wed05/23 03:15 am 47.44 ft 3830 cfs
Wed05/23 03:00 am 47.42 ft 3790 cfs
Wed05/23 02:45 am 47.41 ft 3770 cfs
Wed05/23 02:30 am 47.4 ft 3740 cfs
Wed05/23 02:15 am 47.39 ft 3720 cfs
Wed05/23 02:00 am 47.38 ft 3700 cfs
Wed05/23 01:45 am 47.36 ft 3660 cfs
Wed05/23 01:30 am 47.36 ft 3660 cfs
Wed05/23 01:15 am 47.35 ft 3640 cfs
Wed05/23 01:00 am 47.34 ft 3620 cfs
Wed05/23 12:45 am 47.34 ft 3620 cfs
Wed05/23 12:30 am 47.34 ft 3620 cfs
Wed05/23 12:15 am 47.33 ft 3600 cfs
Wed05/23 12:00 am 47.33 ft 3600 cfs
Tue05/22 11:45 pm 47.32 ft 3570 cfs
Tue05/22 11:30 pm 47.32 ft 3570 cfs
Tue05/22 11:15 pm 47.31 ft 3550 cfs
Tue05/22 11:00 pm 47.33 ft 3600 cfs
Tue05/22 10:45 pm 47.32 ft 3570 cfs
Tue05/22 10:30 pm 47.32 ft 3570 cfs
Tue05/22 10:15 pm 47.32 ft 3570 cfs
Tue05/22 10:00 pm 47.33 ft 3600 cfs
Tue05/22 09:45 pm 47.32 ft 3570 cfs
Tue05/22 09:30 pm 47.32 ft 3570 cfs
Tue05/22 09:15 pm 47.33 ft 3600 cfs
Tue05/22 09:00 pm 47.33 ft 3600 cfs
Tue05/22 08:45 pm 47.33 ft 3600 cfs
Tue05/22 08:30 pm 47.34 ft 3620 cfs
Tue05/22 08:15 pm 47.34 ft 3620 cfs
Tue05/22 08:00 pm 47.35 ft 3640 cfs
Tue05/22 07:45 pm 47.35 ft 3640 cfs
Tue05/22 07:30 pm 47.35 ft 3640 cfs
Tue05/22 07:15 pm 47.36 ft 3660 cfs
Tue05/22 07:00 pm 47.36 ft 3660 cfs
Tue05/22 06:45 pm 47.37 ft 3680 cfs
Tue05/22 06:30 pm 47.37 ft 3680 cfs
Tue05/22 06:15 pm 47.37 ft 3680 cfs
Tue05/22 06:00 pm 47.38 ft 3700 cfs
Tue05/22 05:45 pm 47.38 ft 3700 cfs
Tue05/22 05:30 pm 47.39 ft 3720 cfs
Tue05/22 05:15 pm 47.39 ft 3720 cfs
Tue05/22 05:00 pm 47.4 ft 3740 cfs
Tue05/22 04:45 pm 47.39 ft 3720 cfs
Tue05/22 04:30 pm 47.4 ft 3740 cfs
Tue05/22 04:15 pm 47.4 ft 3740 cfs
Tue05/22 04:00 pm 47.41 ft 3770 cfs
Tue05/22 03:45 pm 47.41 ft 3770 cfs
Tue05/22 03:30 pm 47.41 ft 3770 cfs
Tue05/22 03:15 pm 47.42 ft 3790 cfs
Tue05/22 03:00 pm 47.42 ft 3790 cfs
Tue05/22 02:45 pm 47.43 ft 3810 cfs
Tue05/22 02:30 pm 47.43 ft 3810 cfs

Latest Forecasts

Currently Forecasted Readings:
Wed05/23 11:00 am 47.76 ft 4540 cfs
Wed05/23 05:00 pm 47.81 ft 4662 cfs
Wed05/23 11:00 pm 47.87 ft 4814 cfs
Thu05/24 05:00 am 47.91 ft 4904 cfs
Thu05/24 11:00 am 47.8 ft 4640 cfs
Thu05/24 05:00 pm 47.7 ft 4413 cfs
Thu05/24 11:00 pm 47.6 ft 4187 cfs
Fri05/25 05:00 am 47.55 ft 4073 cfs
Fri05/25 11:00 am 47.5 ft 3968 cfs
Fri05/25 05:00 pm 47.42 ft 3792 cfs
Fri05/25 11:00 pm 47.36 ft 3656 cfs
Sat05/26 05:00 am 47.34 ft 3610 cfs
Sat05/26 11:00 am 47.31 ft 3546 cfs
Sat05/26 05:00 pm 47.23 ft 3384 cfs
Sat05/26 11:00 pm 47.16 ft 3235 cfs
Sun05/27 05:00 am 47.12 ft 3174 cfs
Sun05/27 11:00 am 47.1 ft 3128 cfs
Sun05/27 05:00 pm 47.06 ft 3048 cfs
Sun05/27 11:00 pm 47.05 ft 3032 cfs
Mon05/28 05:00 am 47.09 ft 3104 cfs
Mon05/28 11:00 am 47.11 ft 3144 cfs
Mon05/28 05:00 pm 47.07 ft 3076 cfs
Mon05/28 11:00 pm 47.07 ft 3072 cfs
Tue05/29 05:00 am 47.11 ft 3146 cfs
Tue05/29 11:00 am 47.14 ft 3198 cfs
Tue05/29 05:00 pm 47.11 ft 3146 cfs
Tue05/29 11:00 pm 47.11 ft 3144 cfs
Wed05/30 05:00 am 47.15 ft 3223 cfs
Wed05/30 11:00 am 47.16 ft 3252 cfs
Wed05/30 05:00 pm 47.13 ft 3190 cfs
Wed05/30 11:00 pm 47.09 ft 3102 cfs
Thu05/31 05:00 am 47.07 ft 3068 cfs
Thu05/31 11:00 am 47.04 ft 3016 cfs
Thu05/31 05:00 pm 46.99 ft 2910 cfs
Thu05/31 11:00 pm 46.94 ft 2812 cfs
Fri06/01 05:00 am 46.91 ft 2760 cfs
Fri06/01 11:00 am 46.88 ft 2704 cfs
Fri06/01 05:00 pm 46.84 ft 2620 cfs
Fri06/01 11:00 pm 46.8 ft 2552 cfs
Sat06/02 05:00 am 46.8 ft 2566 cfs

Snoqualmie River flood gauge data supplied by the
National Weather Service Northwest River Forecast Center.

Sign up for Floodzilla alerts.